sensor_id;sensor_type;location;lat;lon;timestamp;P1;durP1;ratioP1;P2;durP2;ratioP2
81807;SDS011;71241;13.676;100.700;2023-12-20T00:01:58;6.70;;;5.85;;
81807;SDS011;71241;13.676;100.700;2023-12-20T00:04:29;13.50;;;7.20;;
81807;SDS011;71241;13.676;100.700;2023-12-20T00:07:01;10.52;;;7.60;;
81807;SDS011;71241;13.676;100.700;2023-12-20T00:09:32;8.23;;;6.55;;
81807;SDS011;71241;13.676;100.700;2023-12-20T00:12:03;11.70;;;6.45;;
81807;SDS011;71241;13.676;100.700;2023-12-20T00:14:37;8.70;;;5.60;;
81807;SDS011;71241;13.676;100.700;2023-12-20T00:17:08;14.15;;;8.20;;
81807;SDS011;71241;13.676;100.700;2023-12-20T00:19:44;12.52;;;8.60;;
81807;SDS011;71241;13.676;100.700;2023-12-20T00:22:15;10.35;;;6.95;;
81807;SDS011;71241;13.676;100.700;2023-12-20T00:24:46;11.05;;;7.05;;
81807;SDS011;71241;13.676;100.700;2023-12-20T00:27:16;13.00;;;7.78;;
81807;SDS011;71241;13.676;100.700;2023-12-20T00:32:28;10.98;;;7.85;;
81807;SDS011;71241;13.676;100.700;2023-12-20T00:34:58;11.35;;;7.50;;
81807;SDS011;71241;13.676;100.700;2023-12-20T00:37:31;11.15;;;6.90;;
81807;SDS011;71241;13.676;100.700;2023-12-20T00:40:02;9.70;;;7.75;;
81807;SDS011;71241;13.676;100.700;2023-12-20T00:42:33;12.73;;;8.10;;
81807;SDS011;71241;13.676;100.700;2023-12-20T00:45:07;9.80;;;6.80;;
81807;SDS011;71241;13.676;100.700;2023-12-20T00:47:38;10.82;;;7.40;;
81807;SDS011;71241;13.676;100.700;2023-12-20T00:50:09;9.02;;;6.70;;
81807;SDS011;71241;13.676;100.700;2023-12-20T00:52:40;9.52;;;7.47;;
81807;SDS011;71241;13.676;100.700;2023-12-20T00:55:11;11.52;;;7.78;;
81807;SDS011;71241;13.676;100.700;2023-12-20T00:57:42;9.75;;;6.53;;
81807;SDS011;71241;13.676;100.700;2023-12-20T01:00:15;10.73;;;7.32;;
81807;SDS011;71241;13.676;100.700;2023-12-20T01:02:46;11.45;;;7.75;;
81807;SDS011;71241;13.676;100.700;2023-12-20T01:05:19;11.70;;;7.05;;
81807;SDS011;71241;13.676;100.700;2023-12-20T01:07:53;8.93;;;7.03;;
81807;SDS011;71241;13.676;100.700;2023-12-20T01:10:24;10.30;;;7.13;;
81807;SDS011;71241;13.676;100.700;2023-12-20T01:12:57;8.95;;;6.43;;
81807;SDS011;71241;13.676;100.700;2023-12-20T01:15:29;14.18;;;7.75;;
81807;SDS011;71241;13.676;100.700;2023-12-20T01:18:00;10.77;;;7.00;;
81807;SDS011;71241;13.676;100.700;2023-12-20T01:20:30;14.45;;;7.30;;
81807;SDS011;71241;13.676;100.700;2023-12-20T01:23:01;8.50;;;7.43;;
81807;SDS011;71241;13.676;100.700;2023-12-20T01:25:31;10.48;;;7.43;;
81807;SDS011;71241;13.676;100.700;2023-12-20T01:28:02;9.93;;;7.72;;
81807;SDS011;71241;13.676;100.700;2023-12-20T01:30:35;10.35;;;8.80;;
81807;SDS011;71241;13.676;100.700;2023-12-20T01:33:06;11.90;;;10.20;;
81807;SDS011;71241;13.676;100.700;2023-12-20T01:35:36;9.50;;;7.03;;
81807;SDS011;71241;13.676;100.700;2023-12-20T01:38:07;18.95;;;14.75;;
81807;SDS011;71241;13.676;100.700;2023-12-20T01:40:38;18.95;;;13.18;;
81807;SDS011;71241;13.676;100.700;2023-12-20T01:43:09;11.05;;;7.03;;
81807;SDS011;71241;13.676;100.700;2023-12-20T01:45:43;12.77;;;6.97;;
81807;SDS011;71241;13.676;100.700;2023-12-20T01:48:13;11.50;;;9.50;;
81807;SDS011;71241;13.676;100.700;2023-12-20T01:50:45;12.80;;;11.02;;
81807;SDS011;71241;13.676;100.700;2023-12-20T01:53:16;9.55;;;8.18;;
81807;SDS011;71241;13.676;100.700;2023-12-20T01:55:47;7.88;;;6.13;;
81807;SDS011;71241;13.676;100.700;2023-12-20T01:58:18;10.20;;;6.35;;
81807;SDS011;71241;13.676;100.700;2023-12-20T02:00:51;11.27;;;7.65;;
81807;SDS011;71241;13.676;100.700;2023-12-20T02:03:24;14.50;;;13.15;;
81807;SDS011;71241;13.676;100.700;2023-12-20T02:05:57;14.25;;;12.75;;
81807;SDS011;71241;13.676;100.700;2023-12-20T02:08:27;14.63;;;13.23;;
81807;SDS011;71241;13.676;100.700;2023-12-20T02:10:58;12.20;;;5.80;;
81807;SDS011;71241;13.676;100.700;2023-12-20T02:13:29;12.27;;;9.85;;
81807;SDS011;71241;13.676;100.700;2023-12-20T02:16:02;14.70;;;13.40;;
81807;SDS011;71241;13.676;100.700;2023-12-20T02:18:33;8.18;;;7.38;;
81807;SDS011;71241;13.676;100.700;2023-12-20T02:21:05;11.63;;;7.10;;
81807;SDS011;71241;13.676;100.700;2023-12-20T02:23:40;8.20;;;5.35;;
81807;SDS011;71241;13.676;100.700;2023-12-20T02:26:13;8.98;;;6.93;;
81807;SDS011;71241;13.676;100.700;2023-12-20T02:28:44;7.80;;;6.07;;
81807;SDS011;71241;13.676;100.700;2023-12-20T02:31:14;9.27;;;5.40;;
81807;SDS011;71241;13.676;100.700;2023-12-20T02:33:45;10.70;;;9.60;;
81807;SDS011;71241;13.676;100.700;2023-12-20T02:36:16;8.75;;;5.75;;
81807;SDS011;71241;13.676;100.700;2023-12-20T02:38:48;7.78;;;5.72;;
81807;SDS011;71241;13.676;100.700;2023-12-20T02:41:22;12.60;;;5.95;;
81807;SDS011;71241;13.676;100.700;2023-12-20T02:43:55;11.10;;;10.02;;
81807;SDS011;71241;13.676;100.700;2023-12-20T02:46:26;11.23;;;6.00;;
81807;SDS011;71241;13.676;100.700;2023-12-20T02:48:56;15.48;;;5.43;;
81807;SDS011;71241;13.676;100.700;2023-12-20T02:54:00;8.10;;;4.90;;
81807;SDS011;71241;13.676;100.700;2023-12-20T02:56:34;8.85;;;5.50;;
81807;SDS011;71241;13.676;100.700;2023-12-20T02:59:07;13.40;;;7.40;;
81807;SDS011;71241;13.676;100.700;2023-12-20T03:01:41;6.38;;;4.60;;
81807;SDS011;71241;13.676;100.700;2023-12-20T03:04:17;7.95;;;5.47;;
81807;SDS011;71241;13.676;100.700;2023-12-20T03:06:51;10.15;;;5.18;;
81807;SDS011;71241;13.676;100.700;2023-12-20T03:09:24;9.02;;;4.72;;
81807;SDS011;71241;13.676;100.700;2023-12-20T03:11:57;6.65;;;4.22;;
81807;SDS011;71241;13.676;100.700;2023-12-20T03:14:29;7.63;;;4.88;;
81807;SDS011;71241;13.676;100.700;2023-12-20T03:16:59;10.20;;;6.53;;
81807;SDS011;71241;13.676;100.700;2023-12-20T03:19:30;6.00;;;5.40;;
81807;SDS011;71241;13.676;100.700;2023-12-20T03:22:03;9.10;;;5.15;;
81807;SDS011;71241;13.676;100.700;2023-12-20T03:24:37;11.88;;;5.93;;
81807;SDS011;71241;13.676;100.700;2023-12-20T03:27:07;7.07;;;5.32;;
81807;SDS011;71241;13.676;100.700;2023-12-20T03:29:38;8.40;;;4.30;;
81807;SDS011;71241;13.676;100.700;2023-12-20T03:32:08;11.07;;;6.28;;
81807;SDS011;71241;13.676;100.700;2023-12-20T03:34:39;7.40;;;6.13;;
81807;SDS011;71241;13.676;100.700;2023-12-20T03:37:10;6.43;;;4.72;;
81807;SDS011;71241;13.676;100.700;2023-12-20T03:39:42;6.50;;;4.25;;
81807;SDS011;71241;13.676;100.700;2023-12-20T03:42:12;10.35;;;7.22;;
81807;SDS011;71241;13.676;100.700;2023-12-20T03:44:43;7.45;;;4.93;;
81807;SDS011;71241;13.676;100.700;2023-12-20T03:49:51;6.60;;;5.18;;
81807;SDS011;71241;13.676;100.700;2023-12-20T03:52:22;8.95;;;5.55;;
81807;SDS011;71241;13.676;100.700;2023-12-20T03:54:54;11.05;;;5.53;;
81807;SDS011;71241;13.676;100.700;2023-12-20T03:57:25;8.63;;;6.03;;
81807;SDS011;71241;13.676;100.700;2023-12-20T03:59:55;10.63;;;6.53;;
81807;SDS011;71241;13.676;100.700;2023-12-20T04:02:26;9.23;;;6.28;;
81807;SDS011;71241;13.676;100.700;2023-12-20T04:04:58;9.60;;;6.68;;
81807;SDS011;71241;13.676;100.700;2023-12-20T04:07:29;13.82;;;7.80;;
81807;SDS011;71241;13.676;100.700;2023-12-20T04:10:01;12.13;;;6.72;;
81807;SDS011;71241;13.676;100.700;2023-12-20T04:12:32;12.65;;;7.10;;
81807;SDS011;71241;13.676;100.700;2023-12-20T04:15:03;13.07;;;8.30;;
81807;SDS011;71241;13.676;100.700;2023-12-20T04:17:38;13.05;;;8.73;;
81807;SDS011;71241;13.676;100.700;2023-12-20T04:20:09;14.50;;;8.50;;
81807;SDS011;71241;13.676;100.700;2023-12-20T04:22:40;9.77;;;7.68;;
81807;SDS011;71241;13.676;100.700;2023-12-20T04:25:13;10.80;;;8.10;;
81807;SDS011;71241;13.676;100.700;2023-12-20T04:27:44;11.15;;;7.20;;
81807;SDS011;71241;13.676;100.700;2023-12-20T04:30:16;11.85;;;8.70;;
81807;SDS011;71241;13.676;100.700;2023-12-20T04:32:46;8.30;;;7.70;;
81807;SDS011;71241;13.676;100.700;2023-12-20T04:35:17;7.60;;;5.03;;
81807;SDS011;71241;13.676;100.700;2023-12-20T04:37:48;7.75;;;7.15;;
81807;SDS011;71241;13.676;100.700;2023-12-20T04:40:20;7.07;;;5.38;;
81807;SDS011;71241;13.676;100.700;2023-12-20T04:42:51;5.82;;;5.18;;
81807;SDS011;71241;13.676;100.700;2023-12-20T04:45:22;7.63;;;4.97;;
81807;SDS011;71241;13.676;100.700;2023-12-20T04:47:54;6.70;;;5.82;;
81807;SDS011;71241;13.676;100.700;2023-12-20T04:50:25;5.57;;;4.60;;
81807;SDS011;71241;13.676;100.700;2023-12-20T04:52:56;5.93;;;4.43;;
81807;SDS011;71241;13.676;100.700;2023-12-20T04:55:28;6.22;;;4.63;;
81807;SDS011;71241;13.676;100.700;2023-12-20T04:58:02;7.50;;;5.72;;
81807;SDS011;71241;13.676;100.700;2023-12-20T05:00:35;7.35;;;6.45;;
81807;SDS011;71241;13.676;100.700;2023-12-20T05:03:06;9.65;;;6.47;;
81807;SDS011;71241;13.676;100.700;2023-12-20T05:05:38;6.78;;;5.35;;
81807;SDS011;71241;13.676;100.700;2023-12-20T05:08:15;7.10;;;5.95;;
81807;SDS011;71241;13.676;100.700;2023-12-20T05:10:50;5.28;;;4.80;;
81807;SDS011;71241;13.676;100.700;2023-12-20T05:13:21;5.72;;;5.05;;
81807;SDS011;71241;13.676;100.700;2023-12-20T05:16:05;7.28;;;6.38;;
81807;SDS011;71241;13.676;100.700;2023-12-20T05:18:36;6.95;;;5.28;;
81807;SDS011;71241;13.676;100.700;2023-12-20T05:21:07;6.43;;;5.82;;
81807;SDS011;71241;13.676;100.700;2023-12-20T05:23:37;5.95;;;4.88;;
81807;SDS011;71241;13.676;100.700;2023-12-20T05:26:16;5.78;;;4.93;;
81807;SDS011;71241;13.676;100.700;2023-12-20T05:28:47;6.10;;;3.75;;
81807;SDS011;71241;13.676;100.700;2023-12-20T05:31:17;5.25;;;3.33;;
81807;SDS011;71241;13.676;100.700;2023-12-20T05:33:48;4.35;;;3.10;;
81807;SDS011;71241;13.676;100.700;2023-12-20T05:36:22;4.03;;;3.42;;
81807;SDS011;71241;13.676;100.700;2023-12-20T05:38:52;5.18;;;3.88;;
81807;SDS011;71241;13.676;100.700;2023-12-20T05:41:25;4.80;;;3.95;;
81807;SDS011;71241;13.676;100.700;2023-12-20T05:43:55;5.70;;;5.20;;
81807;SDS011;71241;13.676;100.700;2023-12-20T05:46:27;7.15;;;6.65;;
81807;SDS011;71241;13.676;100.700;2023-12-20T05:49:01;5.93;;;5.32;;
81807;SDS011;71241;13.676;100.700;2023-12-20T05:51:32;6.60;;;5.00;;
81807;SDS011;71241;13.676;100.700;2023-12-20T05:54:02;4.10;;;3.70;;
81807;SDS011;71241;13.676;100.700;2023-12-20T05:56:35;4.13;;;3.65;;
81807;SDS011;71241;13.676;100.700;2023-12-20T06:01:35;4.72;;;4.32;;
81807;SDS011;71241;13.676;100.700;2023-12-20T06:04:06;5.15;;;4.65;;
81807;SDS011;71241;13.676;100.700;2023-12-20T06:06:40;5.70;;;4.85;;
81807;SDS011;71241;13.676;100.700;2023-12-20T06:09:11;4.75;;;4.35;;
81807;SDS011;71241;13.676;100.700;2023-12-20T06:11:44;6.53;;;5.05;;
81807;SDS011;71241;13.676;100.700;2023-12-20T06:14:15;5.35;;;4.88;;
81807;SDS011;71241;13.676;100.700;2023-12-20T06:16:46;6.00;;;4.15;;
81807;SDS011;71241;13.676;100.700;2023-12-20T06:19:17;6.07;;;4.25;;
81807;SDS011;71241;13.676;100.700;2023-12-20T06:21:48;5.72;;;4.60;;
81807;SDS011;71241;13.676;100.700;2023-12-20T06:24:18;9.18;;;4.70;;
81807;SDS011;71241;13.676;100.700;2023-12-20T06:26:52;5.53;;;5.03;;
81807;SDS011;71241;13.676;100.700;2023-12-20T06:29:23;5.65;;;4.68;;
81807;SDS011;71241;13.676;100.700;2023-12-20T06:31:55;5.68;;;5.07;;
81807;SDS011;71241;13.676;100.700;2023-12-20T06:34:28;7.97;;;4.88;;
81807;SDS011;71241;13.676;100.700;2023-12-20T06:36:59;8.18;;;4.15;;
81807;SDS011;71241;13.676;100.700;2023-12-20T06:39:37;6.93;;;5.60;;
81807;SDS011;71241;13.676;100.700;2023-12-20T06:42:09;5.88;;;4.68;;
81807;SDS011;71241;13.676;100.700;2023-12-20T06:44:42;6.13;;;4.38;;
81807;SDS011;71241;13.676;100.700;2023-12-20T06:47:13;5.03;;;4.20;;
81807;SDS011;71241;13.676;100.700;2023-12-20T06:49:43;7.13;;;4.70;;
81807;SDS011;71241;13.676;100.700;2023-12-20T06:52:14;6.45;;;4.43;;
81807;SDS011;71241;13.676;100.700;2023-12-20T06:54:45;7.47;;;5.00;;
81807;SDS011;71241;13.676;100.700;2023-12-20T06:57:20;4.57;;;4.18;;
81807;SDS011;71241;13.676;100.700;2023-12-20T06:59:51;5.63;;;4.57;;
81807;SDS011;71241;13.676;100.700;2023-12-20T07:02:21;5.30;;;4.20;;
81807;SDS011;71241;13.676;100.700;2023-12-20T07:05:00;6.03;;;4.20;;
81807;SDS011;71241;13.676;100.700;2023-12-20T07:07:30;7.07;;;4.28;;
81807;SDS011;71241;13.676;100.700;2023-12-20T07:10:01;6.72;;;4.00;;
81807;SDS011;71241;13.676;100.700;2023-12-20T07:12:36;5.65;;;4.22;;
81807;SDS011;71241;13.676;100.700;2023-12-20T07:15:07;6.30;;;4.60;;
81807;SDS011;71241;13.676;100.700;2023-12-20T07:17:38;5.32;;;4.30;;
81807;SDS011;71241;13.676;100.700;2023-12-20T07:20:10;6.30;;;4.50;;
81807;SDS011;71241;13.676;100.700;2023-12-20T07:22:41;6.32;;;3.90;;
81807;SDS011;71241;13.676;100.700;2023-12-20T07:25:11;5.15;;;4.70;;
81807;SDS011;71241;13.676;100.700;2023-12-20T07:27:44;5.03;;;4.47;;
81807;SDS011;71241;13.676;100.700;2023-12-20T07:30:15;4.88;;;4.38;;
81807;SDS011;71241;13.676;100.700;2023-12-20T07:32:48;7.03;;;6.38;;
81807;SDS011;71241;13.676;100.700;2023-12-20T07:35:19;6.25;;;4.25;;
81807;SDS011;71241;13.676;100.700;2023-12-20T07:37:49;3.78;;;3.47;;
81807;SDS011;71241;13.676;100.700;2023-12-20T07:40:20;6.18;;;4.38;;
81807;SDS011;71241;13.676;100.700;2023-12-20T07:42:54;6.20;;;4.40;;
81807;SDS011;71241;13.676;100.700;2023-12-20T07:47:54;4.53;;;3.92;;
81807;SDS011;71241;13.676;100.700;2023-12-20T07:50:25;6.18;;;3.40;;
81807;SDS011;71241;13.676;100.700;2023-12-20T07:52:56;4.50;;;4.05;;
81807;SDS011;71241;13.676;100.700;2023-12-20T07:55:28;5.88;;;5.05;;
81807;SDS011;71241;13.676;100.700;2023-12-20T07:58:02;9.07;;;4.75;;
81807;SDS011;71241;13.676;100.700;2023-12-20T08:00:34;5.22;;;3.95;;
81807;SDS011;71241;13.676;100.700;2023-12-20T08:03:05;5.57;;;5.10;;
81807;SDS011;71241;13.676;100.700;2023-12-20T08:05:36;5.40;;;4.88;;
81807;SDS011;71241;13.676;100.700;2023-12-20T08:08:09;10.63;;;5.65;;
81807;SDS011;71241;13.676;100.700;2023-12-20T08:10:39;6.22;;;4.85;;
81807;SDS011;71241;13.676;100.700;2023-12-20T08:13:11;8.55;;;6.05;;
81807;SDS011;71241;13.676;100.700;2023-12-20T08:15:42;8.25;;;6.22;;
81807;SDS011;71241;13.676;100.700;2023-12-20T08:18:15;8.80;;;5.55;;
81807;SDS011;71241;13.676;100.700;2023-12-20T08:20:46;5.32;;;4.82;;
81807;SDS011;71241;13.676;100.700;2023-12-20T08:25:55;4.93;;;4.00;;
81807;SDS011;71241;13.676;100.700;2023-12-20T08:28:27;4.72;;;4.32;;
81807;SDS011;71241;13.676;100.700;2023-12-20T08:30:58;4.70;;;4.28;;
81807;SDS011;71241;13.676;100.700;2023-12-20T08:33:29;5.63;;;4.85;;
81807;SDS011;71241;13.676;100.700;2023-12-20T08:35:59;5.95;;;4.97;;
81807;SDS011;71241;13.676;100.700;2023-12-20T08:38:34;7.80;;;4.80;;
81807;SDS011;71241;13.676;100.700;2023-12-20T08:41:04;6.13;;;4.97;;
81807;SDS011;71241;13.676;100.700;2023-12-20T08:43:37;7.47;;;5.40;;
81807;SDS011;71241;13.676;100.700;2023-12-20T08:46:11;6.13;;;5.53;;
81807;SDS011;71241;13.676;100.700;2023-12-20T08:48:44;5.47;;;4.72;;
81807;SDS011;71241;13.676;100.700;2023-12-20T08:51:16;5.72;;;4.35;;
81807;SDS011;71241;13.676;100.700;2023-12-20T08:53:46;7.55;;;4.47;;
81807;SDS011;71241;13.676;100.700;2023-12-20T08:56:17;5.28;;;4.78;;
81807;SDS011;71241;13.676;100.700;2023-12-20T08:58:52;7.65;;;4.60;;
81807;SDS011;71241;13.676;100.700;2023-12-20T09:03:57;4.63;;;4.22;;
81807;SDS011;71241;13.676;100.700;2023-12-20T09:06:30;6.90;;;4.25;;
81807;SDS011;71241;13.676;100.700;2023-12-20T09:09:00;7.20;;;4.90;;
81807;SDS011;71241;13.676;100.700;2023-12-20T09:11:31;5.85;;;4.78;;
81807;SDS011;71241;13.676;100.700;2023-12-20T09:14:06;6.15;;;4.00;;
81807;SDS011;71241;13.676;100.700;2023-12-20T09:16:37;6.45;;;4.43;;
81807;SDS011;71241;13.676;100.700;2023-12-20T09:19:07;4.60;;;3.80;;
81807;SDS011;71241;13.676;100.700;2023-12-20T09:21:38;6.40;;;4.55;;
81807;SDS011;71241;13.676;100.700;2023-12-20T09:24:09;6.07;;;4.00;;
81807;SDS011;71241;13.676;100.700;2023-12-20T09:26:40;5.85;;;3.97;;
81807;SDS011;71241;13.676;100.700;2023-12-20T09:29:13;7.18;;;4.85;;
81807;SDS011;71241;13.676;100.700;2023-12-20T09:31:47;5.22;;;4.65;;
81807;SDS011;71241;13.676;100.700;2023-12-20T09:34:19;6.00;;;4.55;;
81807;SDS011;71241;13.676;100.700;2023-12-20T09:36:50;6.80;;;4.95;;
81807;SDS011;71241;13.676;100.700;2023-12-20T09:39:21;4.55;;;3.75;;
81807;SDS011;71241;13.676;100.700;2023-12-20T09:41:59;6.38;;;4.90;;
81807;SDS011;71241;13.676;100.700;2023-12-20T09:44:33;6.90;;;4.88;;
81807;SDS011;71241;13.676;100.700;2023-12-20T09:47:04;5.20;;;4.28;;
81807;SDS011;71241;13.676;100.700;2023-12-20T09:49:35;5.35;;;4.60;;
81807;SDS011;71241;13.676;100.700;2023-12-20T09:52:07;10.32;;;4.25;;
81807;SDS011;71241;13.676;100.700;2023-12-20T09:54:38;6.82;;;3.97;;
81807;SDS011;71241;13.676;100.700;2023-12-20T09:57:10;4.30;;;3.75;;
81807;SDS011;71241;13.676;100.700;2023-12-20T09:59:42;8.43;;;4.07;;
81807;SDS011;71241;13.676;100.700;2023-12-20T10:04:48;7.07;;;4.90;;
81807;SDS011;71241;13.676;100.700;2023-12-20T10:07:20;5.95;;;5.32;;
81807;SDS011;71241;13.676;100.700;2023-12-20T10:09:52;6.10;;;5.60;;
81807;SDS011;71241;13.676;100.700;2023-12-20T10:12:25;6.00;;;5.40;;
81807;SDS011;71241;13.676;100.700;2023-12-20T10:14:57;5.95;;;5.18;;
81807;SDS011;71241;13.676;100.700;2023-12-20T10:17:29;11.15;;;6.70;;
81807;SDS011;71241;13.676;100.700;2023-12-20T10:20:00;7.00;;;5.55;;
81807;SDS011;71241;13.676;100.700;2023-12-20T10:22:32;8.30;;;5.93;;
81807;SDS011;71241;13.676;100.700;2023-12-20T10:25:03;6.97;;;6.00;;
81807;SDS011;71241;13.676;100.700;2023-12-20T10:27:34;8.40;;;6.35;;
81807;SDS011;71241;13.676;100.700;2023-12-20T10:30:07;7.75;;;5.60;;
81807;SDS011;71241;13.676;100.700;2023-12-20T10:32:38;6.75;;;5.47;;
81807;SDS011;71241;13.676;100.700;2023-12-20T10:35:09;9.40;;;6.20;;
81807;SDS011;71241;13.676;100.700;2023-12-20T10:37:40;8.18;;;5.95;;
81807;SDS011;71241;13.676;100.700;2023-12-20T10:40:11;7.47;;;6.57;;
81807;SDS011;71241;13.676;100.700;2023-12-20T10:42:43;7.57;;;6.88;;
81807;SDS011;71241;13.676;100.700;2023-12-20T10:45:16;10.30;;;7.00;;
81807;SDS011;71241;13.676;100.700;2023-12-20T10:47:47;8.10;;;7.03;;
81807;SDS011;71241;13.676;100.700;2023-12-20T10:50:20;7.97;;;5.40;;
81807;SDS011;71241;13.676;100.700;2023-12-20T10:52:50;7.60;;;6.90;;
81807;SDS011;71241;13.676;100.700;2023-12-20T10:55:24;6.90;;;6.22;;
81807;SDS011;71241;13.676;100.700;2023-12-20T10:57:59;7.18;;;6.47;;
81807;SDS011;71241;13.676;100.700;2023-12-20T11:00:33;6.38;;;5.47;;
81807;SDS011;71241;13.676;100.700;2023-12-20T11:03:08;8.10;;;7.07;;
81807;SDS011;71241;13.676;100.700;2023-12-20T11:05:42;9.93;;;6.00;;
81807;SDS011;71241;13.676;100.700;2023-12-20T11:08:20;6.53;;;6.03;;
81807;SDS011;71241;13.676;100.700;2023-12-20T11:10:56;7.40;;;3.95;;
81807;SDS011;71241;13.676;100.700;2023-12-20T11:13:30;6.72;;;6.05;;
81807;SDS011;71241;13.676;100.700;2023-12-20T11:16:04;7.22;;;6.50;;
81807;SDS011;71241;13.676;100.700;2023-12-20T11:18:37;13.85;;;13.10;;
81807;SDS011;71241;13.676;100.700;2023-12-20T11:21:07;14.93;;;14.13;;
81807;SDS011;71241;13.676;100.700;2023-12-20T11:23:38;14.52;;;13.57;;
81807;SDS011;71241;13.676;100.700;2023-12-20T11:26:09;9.98;;;9.25;;
81807;SDS011;71241;13.676;100.700;2023-12-20T11:28:45;8.55;;;7.68;;
81807;SDS011;71241;13.676;100.700;2023-12-20T11:31:20;10.93;;;10.02;;
81807;SDS011;71241;13.676;100.700;2023-12-20T11:33:53;16.63;;;15.38;;
81807;SDS011;71241;13.676;100.700;2023-12-20T11:36:43;24.02;;;19.48;;
81807;SDS011;71241;13.676;100.700;2023-12-20T11:39:18;14.00;;;12.82;;
81807;SDS011;71241;13.676;100.700;2023-12-20T11:41:51;13.95;;;12.75;;
81807;SDS011;71241;13.676;100.700;2023-12-20T11:44:22;11.00;;;10.20;;
81807;SDS011;71241;13.676;100.700;2023-12-20T11:46:54;15.40;;;14.30;;
81807;SDS011;71241;13.676;100.700;2023-12-20T11:49:25;15.50;;;14.63;;
81807;SDS011;71241;13.676;100.700;2023-12-20T11:51:58;10.20;;;9.15;;
81807;SDS011;71241;13.676;100.700;2023-12-20T11:57:00;13.00;;;12.38;;
81807;SDS011;71241;13.676;100.700;2023-12-20T11:59:31;14.07;;;13.43;;
81807;SDS011;71241;13.676;100.700;2023-12-20T12:02:04;14.25;;;13.15;;
81807;SDS011;71241;13.676;100.700;2023-12-20T12:04:36;13.27;;;12.65;;
81807;SDS011;71241;13.676;100.700;2023-12-20T12:07:10;14.23;;;13.35;;
81807;SDS011;71241;13.676;100.700;2023-12-20T12:09:41;12.73;;;12.07;;
81807;SDS011;71241;13.676;100.700;2023-12-20T12:12:13;13.77;;;13.02;;
81807;SDS011;71241;13.676;100.700;2023-12-20T12:14:44;11.05;;;10.45;;
81807;SDS011;71241;13.676;100.700;2023-12-20T12:17:27;9.68;;;8.82;;
81807;SDS011;71241;13.676;100.700;2023-12-20T12:20:04;12.18;;;10.95;;
81807;SDS011;71241;13.676;100.700;2023-12-20T12:22:39;8.77;;;8.00;;
81807;SDS011;71241;13.676;100.700;2023-12-20T12:25:13;8.10;;;7.40;;
81807;SDS011;71241;13.676;100.700;2023-12-20T12:27:44;10.82;;;10.00;;
81807;SDS011;71241;13.676;100.700;2023-12-20T12:30:16;11.38;;;10.50;;
81807;SDS011;71241;13.676;100.700;2023-12-20T12:32:49;9.98;;;9.05;;
81807;SDS011;71241;13.676;100.700;2023-12-20T12:35:21;11.68;;;10.88;;
81807;SDS011;71241;13.676;100.700;2023-12-20T12:37:52;12.98;;;12.02;;
81807;SDS011;71241;13.676;100.700;2023-12-20T12:40:22;16.00;;;14.93;;
81807;SDS011;71241;13.676;100.700;2023-12-20T12:42:53;10.25;;;9.25;;
81807;SDS011;71241;13.676;100.700;2023-12-20T12:45:24;10.05;;;9.32;;
81807;SDS011;71241;13.676;100.700;2023-12-20T12:47:57;8.60;;;7.25;;
81807;SDS011;71241;13.676;100.700;2023-12-20T12:50:31;8.30;;;7.60;;
81807;SDS011;71241;13.676;100.700;2023-12-20T12:53:02;12.52;;;11.55;;
81807;SDS011;71241;13.676;100.700;2023-12-20T12:55:33;11.40;;;10.48;;
81807;SDS011;71241;13.676;100.700;2023-12-20T12:58:04;9.68;;;9.00;;
81807;SDS011;71241;13.676;100.700;2023-12-20T13:00:35;7.40;;;6.90;;
81807;SDS011;71241;13.676;100.700;2023-12-20T13:03:09;12.45;;;11.27;;
81807;SDS011;71241;13.676;100.700;2023-12-20T13:05:39;19.90;;;18.92;;
81807;SDS011;71241;13.676;100.700;2023-12-20T13:08:13;14.30;;;13.30;;
81807;SDS011;71241;13.676;100.700;2023-12-20T13:10:45;18.60;;;17.38;;
81807;SDS011;71241;13.676;100.700;2023-12-20T13:13:19;9.85;;;8.95;;
81807;SDS011;71241;13.676;100.700;2023-12-20T13:15:50;12.07;;;11.38;;
81807;SDS011;71241;13.676;100.700;2023-12-20T13:18:25;15.95;;;14.95;;
81807;SDS011;71241;13.676;100.700;2023-12-20T13:23:26;16.92;;;15.43;;
81807;SDS011;71241;13.676;100.700;2023-12-20T13:25:57;14.43;;;13.23;;
81807;SDS011;71241;13.676;100.700;2023-12-20T13:28:27;8.95;;;8.07;;
81807;SDS011;71241;13.676;100.700;2023-12-20T13:30:58;11.20;;;10.50;;
81807;SDS011;71241;13.676;100.700;2023-12-20T13:33:31;9.02;;;8.15;;
81807;SDS011;71241;13.676;100.700;2023-12-20T13:36:02;9.88;;;8.88;;
81807;SDS011;71241;13.676;100.700;2023-12-20T13:38:34;8.95;;;7.75;;
81807;SDS011;71241;13.676;100.700;2023-12-20T13:41:05;9.18;;;6.45;;
81807;SDS011;71241;13.676;100.700;2023-12-20T13:43:36;8.77;;;7.88;;
81807;SDS011;71241;13.676;100.700;2023-12-20T13:46:07;8.35;;;7.53;;
81807;SDS011;71241;13.676;100.700;2023-12-20T13:48:45;9.73;;;8.85;;
81807;SDS011;71241;13.676;100.700;2023-12-20T13:51:19;11.20;;;9.00;;
81807;SDS011;71241;13.676;100.700;2023-12-20T13:53:50;14.63;;;13.20;;
81807;SDS011;71241;13.676;100.700;2023-12-20T13:56:20;9.27;;;8.38;;
81807;SDS011;71241;13.676;100.700;2023-12-20T13:58:52;16.02;;;9.48;;
81807;SDS011;71241;13.676;100.700;2023-12-20T14:01:23;11.57;;;8.48;;
81807;SDS011;71241;13.676;100.700;2023-12-20T14:03:57;8.35;;;7.75;;
81807;SDS011;71241;13.676;100.700;2023-12-20T14:06:30;10.20;;;9.30;;
81807;SDS011;71241;13.676;100.700;2023-12-20T14:09:01;8.77;;;7.97;;
81807;SDS011;71241;13.676;100.700;2023-12-20T14:11:32;9.63;;;8.77;;
81807;SDS011;71241;13.676;100.700;2023-12-20T14:14:10;7.85;;;7.15;;
81807;SDS011;71241;13.676;100.700;2023-12-20T14:16:40;12.35;;;11.38;;
81807;SDS011;71241;13.676;100.700;2023-12-20T14:19:15;9.52;;;8.55;;
81807;SDS011;71241;13.676;100.700;2023-12-20T14:21:47;9.40;;;8.50;;
81807;SDS011;71241;13.676;100.700;2023-12-20T14:24:17;9.95;;;9.25;;
81807;SDS011;71241;13.676;100.700;2023-12-20T14:26:48;11.45;;;10.40;;
81807;SDS011;71241;13.676;100.700;2023-12-20T14:29:18;9.88;;;9.00;;
81807;SDS011;71241;13.676;100.700;2023-12-20T14:34:22;9.23;;;8.30;;
81807;SDS011;71241;13.676;100.700;2023-12-20T14:36:56;8.85;;;8.02;;
81807;SDS011;71241;13.676;100.700;2023-12-20T14:39:26;8.60;;;7.72;;
81807;SDS011;71241;13.676;100.700;2023-12-20T14:41:57;11.57;;;10.70;;
81807;SDS011;71241;13.676;100.700;2023-12-20T14:44:28;10.45;;;9.63;;
81807;SDS011;71241;13.676;100.700;2023-12-20T14:47:01;11.70;;;10.60;;
81807;SDS011;71241;13.676;100.700;2023-12-20T14:49:33;12.50;;;11.82;;
81807;SDS011;71241;13.676;100.700;2023-12-20T14:52:05;12.63;;;11.82;;
81807;SDS011;71241;13.676;100.700;2023-12-20T14:54:39;9.70;;;8.10;;
81807;SDS011;71241;13.676;100.700;2023-12-20T14:57:11;12.82;;;11.93;;
81807;SDS011;71241;13.676;100.700;2023-12-20T14:59:41;11.00;;;10.20;;
81807;SDS011;71241;13.676;100.700;2023-12-20T15:02:12;17.55;;;16.02;;
81807;SDS011;71241;13.676;100.700;2023-12-20T15:04:48;13.90;;;13.05;;
81807;SDS011;71241;13.676;100.700;2023-12-20T15:07:20;12.85;;;11.90;;
81807;SDS011;71241;13.676;100.700;2023-12-20T15:09:50;13.63;;;12.90;;
81807;SDS011;71241;13.676;100.700;2023-12-20T15:12:22;10.50;;;9.70;;